sensor_id;sensor_type;location;lat;lon;timestamp;P1;durP1;ratioP1;P2;durP2;ratioP2
11346;SDS011;5728;42.722;23.258;2023-05-20T00:01:55;11.97;;;8.37;;
11346;SDS011;5728;42.722;23.258;2023-05-20T00:04:22;13.17;;;8.13;;
11346;SDS011;5728;42.722;23.258;2023-05-20T00:06:49;11.27;;;8.37;;
11346;SDS011;5728;42.722;23.258;2023-05-20T00:09:16;10.67;;;7.80;;
11346;SDS011;5728;42.722;23.258;2023-05-20T00:11:42;13.07;;;8.90;;
11346;SDS011;5728;42.722;23.258;2023-05-20T00:14:11;10.27;;;8.27;;
11346;SDS011;5728;42.722;23.258;2023-05-20T00:16:40;12.57;;;8.37;;
11346;SDS011;5728;42.722;23.258;2023-05-20T00:19:07;13.57;;;8.43;;
11346;SDS011;5728;42.722;23.258;2023-05-20T00:21:34;16.97;;;8.77;;
11346;SDS011;5728;42.722;23.258;2023-05-20T00:24:01;17.43;;;8.30;;
11346;SDS011;5728;42.722;23.258;2023-05-20T00:26:28;13.27;;;8.17;;
11346;SDS011;5728;42.722;23.258;2023-05-20T00:28:55;11.97;;;8.77;;
11346;SDS011;5728;42.722;23.258;2023-05-20T00:31:22;21.40;;;8.73;;
11346;SDS011;5728;42.722;23.258;2023-05-20T00:33:50;14.63;;;8.67;;
11346;SDS011;5728;42.722;23.258;2023-05-20T00:36:16;16.33;;;8.83;;
11346;SDS011;5728;42.722;23.258;2023-05-20T00:38:43;13.17;;;8.23;;
11346;SDS011;5728;42.722;23.258;2023-05-20T00:41:10;17.10;;;8.50;;
11346;SDS011;5728;42.722;23.258;2023-05-20T00:43:38;11.13;;;7.97;;
11346;SDS011;5728;42.722;23.258;2023-05-20T00:46:05;14.83;;;8.70;;
11346;SDS011;5728;42.722;23.258;2023-05-20T00:48:35;10.67;;;7.90;;
11346;SDS011;5728;42.722;23.258;2023-05-20T00:51:07;11.13;;;8.50;;
11346;SDS011;5728;42.722;23.258;2023-05-20T00:53:35;15.73;;;8.70;;
11346;SDS011;5728;42.722;23.258;2023-05-20T00:56:03;9.63;;;8.23;;
11346;SDS011;5728;42.722;23.258;2023-05-20T00:58:30;12.30;;;8.47;;
11346;SDS011;5728;42.722;23.258;2023-05-20T01:00:57;10.70;;;7.73;;
11346;SDS011;5728;42.722;23.258;2023-05-20T01:03:24;9.47;;;7.27;;
11346;SDS011;5728;42.722;23.258;2023-05-20T01:05:52;13.90;;;7.97;;
11346;SDS011;5728;42.722;23.258;2023-05-20T01:08:22;15.23;;;7.97;;
11346;SDS011;5728;42.722;23.258;2023-05-20T01:10:53;11.37;;;7.63;;
11346;SDS011;5728;42.722;23.258;2023-05-20T01:13:28;10.73;;;7.40;;
11346;SDS011;5728;42.722;23.258;2023-05-20T01:15:59;14.63;;;7.73;;
11346;SDS011;5728;42.722;23.258;2023-05-20T01:18:29;13.77;;;7.77;;
11346;SDS011;5728;42.722;23.258;2023-05-20T01:20:58;12.77;;;7.57;;
11346;SDS011;5728;42.722;23.258;2023-05-20T01:23:36;12.47;;;8.27;;
11346;SDS011;5728;42.722;23.258;2023-05-20T01:26:04;12.87;;;7.73;;
11346;SDS011;5728;42.722;23.258;2023-05-20T01:28:31;17.00;;;8.60;;
11346;SDS011;5728;42.722;23.258;2023-05-20T01:30:59;12.40;;;7.73;;
11346;SDS011;5728;42.722;23.258;2023-05-20T01:33:28;11.93;;;7.20;;
11346;SDS011;5728;42.722;23.258;2023-05-20T01:35:56;12.17;;;8.40;;
11346;SDS011;5728;42.722;23.258;2023-05-20T01:38:24;12.10;;;7.80;;
11346;SDS011;5728;42.722;23.258;2023-05-20T01:40:53;10.93;;;7.80;;
11346;SDS011;5728;42.722;23.258;2023-05-20T01:43:22;11.07;;;7.63;;
11346;SDS011;5728;42.722;23.258;2023-05-20T01:45:51;8.77;;;6.97;;
11346;SDS011;5728;42.722;23.258;2023-05-20T01:48:17;11.13;;;7.70;;
11346;SDS011;5728;42.722;23.258;2023-05-20T01:50:44;10.23;;;7.77;;
11346;SDS011;5728;42.722;23.258;2023-05-20T01:53:11;18.30;;;7.90;;
11346;SDS011;5728;42.722;23.258;2023-05-20T01:55:38;12.70;;;8.27;;
11346;SDS011;5728;42.722;23.258;2023-05-20T01:58:06;11.47;;;8.50;;
11346;SDS011;5728;42.722;23.258;2023-05-20T02:00:33;11.83;;;7.67;;
11346;SDS011;5728;42.722;23.258;2023-05-20T02:02:59;10.27;;;7.57;;
11346;SDS011;5728;42.722;23.258;2023-05-20T02:05:27;9.13;;;7.30;;
11346;SDS011;5728;42.722;23.258;2023-05-20T02:07:54;10.87;;;7.43;;
11346;SDS011;5728;42.722;23.258;2023-05-20T02:10:21;10.83;;;6.73;;
11346;SDS011;5728;42.722;23.258;2023-05-20T02:12:48;13.77;;;8.00;;
11346;SDS011;5728;42.722;23.258;2023-05-20T02:15:16;17.10;;;7.93;;
11346;SDS011;5728;42.722;23.258;2023-05-20T02:17:43;17.93;;;8.53;;
11346;SDS011;5728;42.722;23.258;2023-05-20T02:20:10;12.23;;;7.90;;
11346;SDS011;5728;42.722;23.258;2023-05-20T02:22:38;15.03;;;8.20;;
11346;SDS011;5728;42.722;23.258;2023-05-20T02:25:05;13.60;;;9.27;;
11346;SDS011;5728;42.722;23.258;2023-05-20T02:27:32;11.93;;;9.17;;
11346;SDS011;5728;42.722;23.258;2023-05-20T02:29:59;12.50;;;9.23;;
11346;SDS011;5728;42.722;23.258;2023-05-20T02:32:27;14.33;;;8.67;;
11346;SDS011;5728;42.722;23.258;2023-05-20T02:34:54;16.33;;;8.97;;
11346;SDS011;5728;42.722;23.258;2023-05-20T02:37:21;14.93;;;8.87;;
11346;SDS011;5728;42.722;23.258;2023-05-20T02:39:48;21.33;;;9.53;;
11346;SDS011;5728;42.722;23.258;2023-05-20T02:42:14;16.13;;;9.37;;
11346;SDS011;5728;42.722;23.258;2023-05-20T02:44:41;13.80;;;9.37;;
11346;SDS011;5728;42.722;23.258;2023-05-20T02:47:08;15.80;;;10.33;;
11346;SDS011;5728;42.722;23.258;2023-05-20T02:49:36;15.30;;;10.63;;
11346;SDS011;5728;42.722;23.258;2023-05-20T02:52:03;19.70;;;10.70;;
11346;SDS011;5728;42.722;23.258;2023-05-20T02:54:30;17.20;;;10.40;;
11346;SDS011;5728;42.722;23.258;2023-05-20T02:56:57;14.07;;;10.83;;
11346;SDS011;5728;42.722;23.258;2023-05-20T02:59:24;15.57;;;10.60;;
11346;SDS011;5728;42.722;23.258;2023-05-20T03:01:50;19.40;;;8.87;;
11346;SDS011;5728;42.722;23.258;2023-05-20T03:04:17;17.00;;;9.73;;
11346;SDS011;5728;42.722;23.258;2023-05-20T03:06:47;18.13;;;10.63;;
11346;SDS011;5728;42.722;23.258;2023-05-20T03:09:16;19.70;;;10.07;;
11346;SDS011;5728;42.722;23.258;2023-05-20T03:11:43;23.23;;;12.93;;
11346;SDS011;5728;42.722;23.258;2023-05-20T03:14:10;77.77;;;49.47;;
11346;SDS011;5728;42.722;23.258;2023-05-20T03:16:37;15.23;;;9.47;;
11346;SDS011;5728;42.722;23.258;2023-05-20T03:19:03;14.80;;;10.27;;
11346;SDS011;5728;42.722;23.258;2023-05-20T03:21:31;18.73;;;10.77;;
11346;SDS011;5728;42.722;23.258;2023-05-20T03:23:59;14.17;;;9.60;;
11346;SDS011;5728;42.722;23.258;2023-05-20T03:26:26;19.37;;;9.67;;
11346;SDS011;5728;42.722;23.258;2023-05-20T03:28:53;13.57;;;9.80;;
11346;SDS011;5728;42.722;23.258;2023-05-20T03:31:19;17.07;;;9.90;;
11346;SDS011;5728;42.722;23.258;2023-05-20T03:33:46;15.33;;;9.30;;
11346;SDS011;5728;42.722;23.258;2023-05-20T03:36:13;14.57;;;10.27;;
11346;SDS011;5728;42.722;23.258;2023-05-20T03:38:39;22.77;;;10.33;;
11346;SDS011;5728;42.722;23.258;2023-05-20T03:41:08;20.70;;;11.07;;
11346;SDS011;5728;42.722;23.258;2023-05-20T03:43:35;16.60;;;10.53;;
11346;SDS011;5728;42.722;23.258;2023-05-20T03:46:01;19.80;;;11.00;;
11346;SDS011;5728;42.722;23.258;2023-05-20T03:48:28;16.60;;;10.10;;
11346;SDS011;5728;42.722;23.258;2023-05-20T03:50:55;22.73;;;10.73;;
11346;SDS011;5728;42.722;23.258;2023-05-20T03:53:22;24.50;;;10.60;;
11346;SDS011;5728;42.722;23.258;2023-05-20T03:55:48;21.73;;;10.37;;
11346;SDS011;5728;42.722;23.258;2023-05-20T03:58:17;22.73;;;11.17;;
11346;SDS011;5728;42.722;23.258;2023-05-20T04:00:46;14.87;;;10.13;;
11346;SDS011;5728;42.722;23.258;2023-05-20T04:03:12;19.20;;;9.93;;
11346;SDS011;5728;42.722;23.258;2023-05-20T04:05:39;18.77;;;11.60;;
11346;SDS011;5728;42.722;23.258;2023-05-20T04:08:06;28.13;;;11.63;;
11346;SDS011;5728;42.722;23.258;2023-05-20T04:10:34;18.33;;;11.37;;
11346;SDS011;5728;42.722;23.258;2023-05-20T04:13:00;23.23;;;11.30;;
11346;SDS011;5728;42.722;23.258;2023-05-20T04:15:28;17.93;;;10.40;;
11346;SDS011;5728;42.722;23.258;2023-05-20T04:17:55;17.33;;;10.10;;
11346;SDS011;5728;42.722;23.258;2023-05-20T04:20:22;24.57;;;10.17;;
11346;SDS011;5728;42.722;23.258;2023-05-20T04:22:49;13.83;;;10.23;;
11346;SDS011;5728;42.722;23.258;2023-05-20T04:25:16;14.83;;;10.20;;
11346;SDS011;5728;42.722;23.258;2023-05-20T04:27:43;15.50;;;9.30;;
11346;SDS011;5728;42.722;23.258;2023-05-20T04:30:10;19.63;;;10.73;;
11346;SDS011;5728;42.722;23.258;2023-05-20T04:32:39;27.27;;;11.40;;
11346;SDS011;5728;42.722;23.258;2023-05-20T04:35:06;15.43;;;11.13;;
11346;SDS011;5728;42.722;23.258;2023-05-20T04:37:35;17.07;;;10.33;;
11346;SDS011;5728;42.722;23.258;2023-05-20T04:40:03;14.40;;;11.17;;
11346;SDS011;5728;42.722;23.258;2023-05-20T04:42:30;19.53;;;9.93;;
11346;SDS011;5728;42.722;23.258;2023-05-20T04:44:57;18.97;;;10.43;;
11346;SDS011;5728;42.722;23.258;2023-05-20T04:47:25;14.03;;;10.37;;
11346;SDS011;5728;42.722;23.258;2023-05-20T04:49:54;18.00;;;11.00;;
11346;SDS011;5728;42.722;23.258;2023-05-20T04:52:22;18.90;;;11.05;;
11346;SDS011;5728;42.722;23.258;2023-05-20T04:54:50;21.67;;;11.13;;
11346;SDS011;5728;42.722;23.258;2023-05-20T04:57:16;18.63;;;11.18;;
11346;SDS011;5728;42.722;23.258;2023-05-20T04:59:45;33.53;;;15.07;;
11346;SDS011;5728;42.722;23.258;2023-05-20T05:02:12;21.45;;;12.25;;
11346;SDS011;5728;42.722;23.258;2023-05-20T05:04:39;16.65;;;12.43;;
11346;SDS011;5728;42.722;23.258;2023-05-20T05:07:07;23.70;;;12.75;;
11346;SDS011;5728;42.722;23.258;2023-05-20T05:09:34;32.17;;;16.98;;
11346;SDS011;5728;42.722;23.258;2023-05-20T05:12:01;16.83;;;10.75;;
11346;SDS011;5728;42.722;23.258;2023-05-20T05:14:28;18.15;;;11.30;;
11346;SDS011;5728;42.722;23.258;2023-05-20T05:16:55;20.45;;;11.32;;
11346;SDS011;5728;42.722;23.258;2023-05-20T05:19:22;14.70;;;10.63;;
11346;SDS011;5728;42.722;23.258;2023-05-20T05:21:49;24.88;;;11.55;;
11346;SDS011;5728;42.722;23.258;2023-05-20T05:24:17;18.00;;;11.48;;
11346;SDS011;5728;42.722;23.258;2023-05-20T05:26:44;17.73;;;11.88;;
11346;SDS011;5728;42.722;23.258;2023-05-20T05:29:11;20.92;;;11.38;;
11346;SDS011;5728;42.722;23.258;2023-05-20T05:31:37;17.15;;;11.40;;
11346;SDS011;5728;42.722;23.258;2023-05-20T05:34:04;21.02;;;11.57;;
11346;SDS011;5728;42.722;23.258;2023-05-20T05:36:31;20.60;;;11.75;;
11346;SDS011;5728;42.722;23.258;2023-05-20T05:38:59;20.95;;;11.30;;
11346;SDS011;5728;42.722;23.258;2023-05-20T05:41:27;27.02;;;11.90;;
11346;SDS011;5728;42.722;23.258;2023-05-20T05:43:53;23.52;;;11.65;;
11346;SDS011;5728;42.722;23.258;2023-05-20T05:46:20;18.13;;;11.50;;
11346;SDS011;5728;42.722;23.258;2023-05-20T05:48:47;19.80;;;11.45;;
11346;SDS011;5728;42.722;23.258;2023-05-20T05:51:15;24.13;;;12.10;;
11346;SDS011;5728;42.722;23.258;2023-05-20T05:53:42;24.75;;;11.85;;
11346;SDS011;5728;42.722;23.258;2023-05-20T05:56:09;18.63;;;11.95;;
11346;SDS011;5728;42.722;23.258;2023-05-20T05:58:37;19.55;;;12.45;;
11346;SDS011;5728;42.722;23.258;2023-05-20T06:01:04;16.85;;;10.63;;
11346;SDS011;5728;42.722;23.258;2023-05-20T06:03:31;16.92;;;11.75;;
11346;SDS011;5728;42.722;23.258;2023-05-20T06:05:57;22.80;;;14.00;;
11346;SDS011;5728;42.722;23.258;2023-05-20T06:08:24;15.05;;;11.27;;
11346;SDS011;5728;42.722;23.258;2023-05-20T06:10:51;16.55;;;10.60;;
11346;SDS011;5728;42.722;23.258;2023-05-20T06:13:18;22.17;;;11.55;;
11346;SDS011;5728;42.722;23.258;2023-05-20T06:15:47;21.20;;;10.60;;
11346;SDS011;5728;42.722;23.258;2023-05-20T06:18:16;15.07;;;10.20;;
11346;SDS011;5728;42.722;23.258;2023-05-20T06:20:42;20.92;;;10.43;;
11346;SDS011;5728;42.722;23.258;2023-05-20T06:23:09;17.30;;;9.65;;
11346;SDS011;5728;42.722;23.258;2023-05-20T06:25:36;14.18;;;10.48;;
11346;SDS011;5728;42.722;23.258;2023-05-20T06:28:03;14.45;;;9.38;;
11346;SDS011;5728;42.722;23.258;2023-05-20T06:30:30;20.23;;;10.02;;
11346;SDS011;5728;42.722;23.258;2023-05-20T06:32:58;15.63;;;9.13;;
11346;SDS011;5728;42.722;23.258;2023-05-20T06:35:24;16.95;;;10.15;;
11346;SDS011;5728;42.722;23.258;2023-05-20T06:37:51;20.52;;;9.73;;
11346;SDS011;5728;42.722;23.258;2023-05-20T06:40:19;26.60;;;17.95;;
11346;SDS011;5728;42.722;23.258;2023-05-20T06:42:46;19.23;;;14.52;;
11346;SDS011;5728;42.722;23.258;2023-05-20T06:45:12;11.20;;;7.00;;
11346;SDS011;5728;42.722;23.258;2023-05-20T06:47:39;16.90;;;7.35;;
11346;SDS011;5728;42.722;23.258;2023-05-20T06:50:08;10.75;;;7.20;;
11346;SDS011;5728;42.722;23.258;2023-05-20T06:52:35;9.70;;;6.90;;
11346;SDS011;5728;42.722;23.258;2023-05-20T06:55:02;11.52;;;7.35;;
11346;SDS011;5728;42.722;23.258;2023-05-20T06:57:29;11.05;;;6.70;;
11346;SDS011;5728;42.722;23.258;2023-05-20T07:00:33;13.32;;;6.78;;
11346;SDS011;5728;42.722;23.258;2023-05-20T07:03:00;13.52;;;6.15;;
11346;SDS011;5728;42.722;23.258;2023-05-20T07:05:27;12.10;;;6.90;;
11346;SDS011;5728;42.722;23.258;2023-05-20T07:07:54;12.32;;;7.22;;
11346;SDS011;5728;42.722;23.258;2023-05-20T07:10:20;12.77;;;6.90;;
11346;SDS011;5728;42.722;23.258;2023-05-20T07:12:47;11.40;;;6.40;;
11346;SDS011;5728;42.722;23.258;2023-05-20T07:15:14;9.88;;;6.15;;
11346;SDS011;5728;42.722;23.258;2023-05-20T07:17:43;11.93;;;6.00;;
11346;SDS011;5728;42.722;23.258;2023-05-20T07:20:10;12.07;;;5.72;;
11346;SDS011;5728;42.722;23.258;2023-05-20T07:22:37;12.13;;;5.93;;
11346;SDS011;5728;42.722;23.258;2023-05-20T07:25:04;8.38;;;5.82;;
11346;SDS011;5728;42.722;23.258;2023-05-20T07:27:31;9.82;;;5.35;;
11346;SDS011;5728;42.722;23.258;2023-05-20T07:29:58;10.27;;;6.07;;
11346;SDS011;5728;42.722;23.258;2023-05-20T07:32:25;12.13;;;6.00;;
11346;SDS011;5728;42.722;23.258;2023-05-20T07:34:53;10.52;;;5.68;;
11346;SDS011;5728;42.722;23.258;2023-05-20T07:37:20;7.28;;;5.47;;
11346;SDS011;5728;42.722;23.258;2023-05-20T07:39:48;8.10;;;5.55;;
11346;SDS011;5728;42.722;23.258;2023-05-20T07:42:17;8.52;;;5.68;;
11346;SDS011;5728;42.722;23.258;2023-05-20T07:44:45;9.10;;;5.85;;
11346;SDS011;5728;42.722;23.258;2023-05-20T07:47:14;8.82;;;5.78;;
11346;SDS011;5728;42.722;23.258;2023-05-20T07:49:41;11.55;;;5.75;;
11346;SDS011;5728;42.722;23.258;2023-05-20T07:52:10;14.40;;;5.72;;
11346;SDS011;5728;42.722;23.258;2023-05-20T07:54:37;8.15;;;4.78;;
11346;SDS011;5728;42.722;23.258;2023-05-20T07:57:04;8.50;;;5.80;;
11346;SDS011;5728;42.722;23.258;2023-05-20T07:59:32;8.85;;;4.95;;
11346;SDS011;5728;42.722;23.258;2023-05-20T08:01:59;10.77;;;5.28;;
11346;SDS011;5728;42.722;23.258;2023-05-20T08:04:26;10.60;;;5.22;;
11346;SDS011;5728;42.722;23.258;2023-05-20T08:06:53;11.45;;;5.50;;
11346;SDS011;5728;42.722;23.258;2023-05-20T08:09:22;10.27;;;5.63;;
11346;SDS011;5728;42.722;23.258;2023-05-20T08:11:49;9.23;;;5.30;;
11346;SDS011;5728;42.722;23.258;2023-05-20T08:14:16;9.80;;;5.95;;
11346;SDS011;5728;42.722;23.258;2023-05-20T08:16:43;11.82;;;5.97;;
11346;SDS011;5728;42.722;23.258;2023-05-20T08:19:10;7.63;;;5.28;;
11346;SDS011;5728;42.722;23.258;2023-05-20T08:21:37;7.50;;;5.88;;
11346;SDS011;5728;42.722;23.258;2023-05-20T08:24:04;9.57;;;5.53;;
11346;SDS011;5728;42.722;23.258;2023-05-20T08:26:33;6.15;;;4.75;;
11346;SDS011;5728;42.722;23.258;2023-05-20T08:29:00;6.63;;;5.40;;
11346;SDS011;5728;42.722;23.258;2023-05-20T08:31:27;6.75;;;5.60;;
11346;SDS011;5728;42.722;23.258;2023-05-20T08:33:54;5.43;;;4.78;;
11346;SDS011;5728;42.722;23.258;2023-05-20T08:36:22;8.07;;;6.00;;
11346;SDS011;5728;42.722;23.258;2023-05-20T08:38:50;8.95;;;4.97;;
11346;SDS011;5728;42.722;23.258;2023-05-20T08:41:17;8.30;;;5.78;;
11346;SDS011;5728;42.722;23.258;2023-05-20T08:43:48;6.82;;;4.85;;
11346;SDS011;5728;42.722;23.258;2023-05-20T08:46:16;7.97;;;5.05;;
11346;SDS011;5728;42.722;23.258;2023-05-20T08:48:45;7.90;;;5.25;;
11346;SDS011;5728;42.722;23.258;2023-05-20T08:51:12;8.77;;;5.25;;
11346;SDS011;5728;42.722;23.258;2023-05-20T08:53:41;5.57;;;4.40;;
11346;SDS011;5728;42.722;23.258;2023-05-20T08:56:08;7.00;;;5.75;;
11346;SDS011;5728;42.722;23.258;2023-05-20T08:58:38;6.80;;;5.07;;
11346;SDS011;5728;42.722;23.258;2023-05-20T09:01:08;8.05;;;5.18;;
11346;SDS011;5728;42.722;23.258;2023-05-20T09:03:35;7.65;;;5.10;;
11346;SDS011;5728;42.722;23.258;2023-05-20T09:06:03;20.00;;;5.60;;
11346;SDS011;5728;42.722;23.258;2023-05-20T09:08:31;7.95;;;5.07;;
11346;SDS011;5728;42.722;23.258;2023-05-20T09:10:59;9.25;;;5.55;;
11346;SDS011;5728;42.722;23.258;2023-05-20T09:13:28;7.05;;;4.75;;
11346;SDS011;5728;42.722;23.258;2023-05-20T09:15:57;9.07;;;4.97;;
11346;SDS011;5728;42.722;23.258;2023-05-20T09:18:27;5.40;;;4.15;;
11346;SDS011;5728;42.722;23.258;2023-05-20T09:20:55;5.78;;;4.88;;
11346;SDS011;5728;42.722;23.258;2023-05-20T09:23:22;11.25;;;5.40;;
11346;SDS011;5728;42.722;23.258;2023-05-20T09:25:51;5.75;;;4.90;;
11346;SDS011;5728;42.722;23.258;2023-05-20T09:28:21;8.63;;;5.45;;
11346;SDS011;5728;42.722;23.258;2023-05-20T09:30:49;6.60;;;5.00;;
11346;SDS011;5728;42.722;23.258;2023-05-20T09:33:16;9.93;;;4.97;;
11346;SDS011;5728;42.722;23.258;2023-05-20T09:35:45;6.55;;;4.90;;
11346;SDS011;5728;42.722;23.258;2023-05-20T09:38:12;8.90;;;5.10;;
11346;SDS011;5728;42.722;23.258;2023-05-20T09:40:41;6.82;;;5.63;;
11346;SDS011;5728;42.722;23.258;2023-05-20T09:43:11;6.55;;;5.45;;
11346;SDS011;5728;42.722;23.258;2023-05-20T09:45:39;6.10;;;5.10;;
11346;SDS011;5728;42.722;23.258;2023-05-20T09:48:07;6.07;;;4.93;;
11346;SDS011;5728;42.722;23.258;2023-05-20T09:50:37;8.05;;;5.40;;
11346;SDS011;5728;42.722;23.258;2023-05-20T09:53:08;7.32;;;5.25;;
11346;SDS011;5728;42.722;23.258;2023-05-20T09:55:36;5.40;;;4.85;;
11346;SDS011;5728;42.722;23.258;2023-05-20T09:58:04;5.20;;;4.53;;
11346;SDS011;5728;42.722;23.258;2023-05-20T10:00:32;7.80;;;5.45;;
11346;SDS011;5728;42.722;23.258;2023-05-20T10:02:59;8.73;;;4.75;;
11346;SDS011;5728;42.722;23.258;2023-05-20T10:05:27;6.85;;;5.30;;
11346;SDS011;5728;42.722;23.258;2023-05-20T10:10:55;12.85;;;10.48;;
11346;SDS011;5728;42.722;23.258;2023-05-20T10:13:37;5.05;;;4.25;;
11346;SDS011;5728;42.722;23.258;2023-05-20T10:16:21;10.05;;;5.00;;
11346;SDS011;5728;42.722;23.258;2023-05-20T10:19:03;7.72;;;4.80;;
11346;SDS011;5728;42.722;23.258;2023-05-20T10:21:36;7.35;;;4.75;;
11346;SDS011;5728;42.722;23.258;2023-05-20T10:24:08;7.43;;;4.93;;
11346;SDS011;5728;42.722;23.258;2023-05-20T10:26:36;6.20;;;4.57;;
11346;SDS011;5728;42.722;23.258;2023-05-20T10:29:16;7.28;;;4.60;;
11346;SDS011;5728;42.722;23.258;2023-05-20T10:31:44;4.93;;;3.63;;
11346;SDS011;5728;42.722;23.258;2023-05-20T10:34:14;10.25;;;5.05;;
11346;SDS011;5728;42.722;23.258;2023-05-20T10:36:44;5.32;;;3.78;;
11346;SDS011;5728;42.722;23.258;2023-05-20T10:39:14;6.00;;;4.20;;
11346;SDS011;5728;42.722;23.258;2023-05-20T10:41:42;5.00;;;3.92;;
11346;SDS011;5728;42.722;23.258;2023-05-20T10:44:09;6.18;;;3.97;;
11346;SDS011;5728;42.722;23.258;2023-05-20T10:46:36;6.82;;;3.88;;
11346;SDS011;5728;42.722;23.258;2023-05-20T10:49:04;7.15;;;4.28;;
11346;SDS011;5728;42.722;23.258;2023-05-20T10:51:44;6.55;;;4.05;;
11346;SDS011;5728;42.722;23.258;2023-05-20T10:54:12;5.65;;;4.15;;
11346;SDS011;5728;42.722;23.258;2023-05-20T10:56:50;5.90;;;4.00;;
11346;SDS011;5728;42.722;23.258;2023-05-20T10:59:18;7.80;;;3.93;;
11346;SDS011;5728;42.722;23.258;2023-05-20T11:01:47;6.20;;;3.97;;
11346;SDS011;5728;42.722;23.258;2023-05-20T11:04:14;9.32;;;4.28;;
11346;SDS011;5728;42.722;23.258;2023-05-20T11:06:48;6.10;;;4.18;;
11346;SDS011;5728;42.722;23.258;2023-05-20T11:09:15;6.63;;;4.75;;
11346;SDS011;5728;42.722;23.258;2023-05-20T11:11:43;5.32;;;4.20;;
11346;SDS011;5728;42.722;23.258;2023-05-20T11:14:11;7.05;;;4.72;;
11346;SDS011;5728;42.722;23.258;2023-05-20T11:16:39;6.05;;;4.18;;
11346;SDS011;5728;42.722;23.258;2023-05-20T11:19:07;10.90;;;4.93;;
11346;SDS011;5728;42.722;23.258;2023-05-20T11:21:41;7.15;;;4.90;;
11346;SDS011;5728;42.722;23.258;2023-05-20T11:24:08;6.05;;;4.57;;
11346;SDS011;5728;42.722;23.258;2023-05-20T11:26:36;6.93;;;4.53;;
11346;SDS011;5728;42.722;23.258;2023-05-20T11:29:02;6.78;;;3.72;;
11346;SDS011;5728;42.722;23.258;2023-05-20T11:31:31;8.15;;;4.28;;
11346;SDS011;5728;42.722;23.258;2023-05-20T11:33:58;6.43;;;4.68;;
11346;SDS011;5728;42.722;23.258;2023-05-20T11:36:26;5.15;;;4.20;;
11346;SDS011;5728;42.722;23.258;2023-05-20T11:38:55;6.25;;;4.13;;
11346;SDS011;5728;42.722;23.258;2023-05-20T11:41:23;6.40;;;4.60;;
11346;SDS011;5728;42.722;23.258;2023-05-20T11:43:54;4.40;;;3.92;;
11346;SDS011;5728;42.722;23.258;2023-05-20T11:46:22;6.70;;;4.43;;
11346;SDS011;5728;42.722;23.258;2023-05-20T11:48:54;7.95;;;4.28;;
11346;SDS011;5728;42.722;23.258;2023-05-20T11:51:22;4.88;;;4.07;;
11346;SDS011;5728;42.722;23.258;2023-05-20T11:53:50;6.18;;;4.72;;
11346;SDS011;5728;42.722;23.258;2023-05-20T11:56:16;8.48;;;3.70;;
11346;SDS011;5728;42.722;23.258;2023-05-20T11:58:44;8.40;;;4.05;;
11346;SDS011;5728;42.722;23.258;2023-05-20T12:01:10;5.10;;;3.92;;
11346;SDS011;5728;42.722;23.258;2023-05-20T12:03:37;5.55;;;4.40;;
11346;SDS011;5728;42.722;23.258;2023-05-20T12:06:05;4.82;;;4.20;;
11346;SDS011;5728;42.722;23.258;2023-05-20T12:08:33;6.65;;;4.50;;
11346;SDS011;5728;42.722;23.258;2023-05-20T12:11:00;8.88;;;4.45;;
11346;SDS011;5728;42.722;23.258;2023-05-20T12:13:27;7.47;;;4.10;;
11346;SDS011;5728;42.722;23.258;2023-05-20T12:15:53;6.32;;;4.35;;
11346;SDS011;5728;42.722;23.258;2023-05-20T12:18:21;11.10;;;5.40;;
11346;SDS011;5728;42.722;23.258;2023-05-20T12:20:48;7.43;;;4.20;;
11346;SDS011;5728;42.722;23.258;2023-05-20T12:23:16;6.43;;;4.32;;
11346;SDS011;5728;42.722;23.258;2023-05-20T12:25:43;9.07;;;4.07;;
11346;SDS011;5728;42.722;23.258;2023-05-20T12:28:11;4.55;;;4.15;;
11346;SDS011;5728;42.722;23.258;2023-05-20T12:30:38;7.03;;;4.13;;
11346;SDS011;5728;42.722;23.258;2023-05-20T12:33:05;11.20;;;5.38;;
11346;SDS011;5728;42.722;23.258;2023-05-20T12:35:37;7.97;;;4.00;;
11346;SDS011;5728;42.722;23.258;2023-05-20T12:38:05;6.97;;;4.47;;
11346;SDS011;5728;42.722;23.258;2023-05-20T12:40:33;5.28;;;3.70;;
11346;SDS011;5728;42.722;23.258;2023-05-20T12:43:01;8.32;;;4.90;;
11346;SDS011;5728;42.722;23.258;2023-05-20T12:45:28;8.43;;;4.93;;
11346;SDS011;5728;42.722;23.258;2023-05-20T12:47:55;8.02;;;3.95;;
11346;SDS011;5728;42.722;23.258;2023-05-20T12:50:23;7.80;;;3.53;;
11346;SDS011;5728;42.722;23.258;2023-05-20T12:52:50;4.88;;;3.20;;
11346;SDS011;5728;42.722;23.258;2023-05-20T12:55:17;5.20;;;3.13;;
11346;SDS011;5728;42.722;23.258;2023-05-20T12:57:46;3.92;;;3.05;;
11346;SDS011;5728;42.722;23.258;2023-05-20T13:00:16;4.50;;;3.60;;
11346;SDS011;5728;42.722;23.258;2023-05-20T13:02:42;3.53;;;3.00;;
11346;SDS011;5728;42.722;23.258;2023-05-20T13:05:09;2.45;;;2.22;;
11346;SDS011;5728;42.722;23.258;2023-05-20T13:07:36;3.47;;;2.50;;
11346;SDS011;5728;42.722;23.258;2023-05-20T13:10:05;5.05;;;3.03;;
11346;SDS011;5728;42.722;23.258;2023-05-20T13:12:34;7.05;;;3.30;;
11346;SDS011;5728;42.722;23.258;2023-05-20T13:15:03;4.15;;;3.03;;
11346;SDS011;5728;42.722;23.258;2023-05-20T13:17:30;6.13;;;3.28;;
11346;SDS011;5728;42.722;23.258;2023-05-20T13:19:57;4.63;;;3.83;;
11346;SDS011;5728;42.722;23.258;2023-05-20T13:22:24;4.60;;;3.35;;
11346;SDS011;5728;42.722;23.258;2023-05-20T13:24:51;4.50;;;3.50;;
11346;SDS011;5728;42.722;23.258;2023-05-20T13:27:17;6.00;;;3.03;;
11346;SDS011;5728;42.722;23.258;2023-05-20T13:29:44;4.15;;;3.25;;
11346;SDS011;5728;42.722;23.258;2023-05-20T13:32:12;5.90;;;3.30;;
11346;SDS011;5728;42.722;23.258;2023-05-20T13:34:39;5.03;;;3.50;;
11346;SDS011;5728;42.722;23.258;2023-05-20T13:37:06;3.63;;;3.22;;
11346;SDS011;5728;42.722;23.258;2023-05-20T13:39:33;6.47;;;4.35;;
11346;SDS011;5728;42.722;23.258;2023-05-20T13:42:00;7.22;;;3.70;;
11346;SDS011;5728;42.722;23.258;2023-05-20T13:44:28;5.68;;;3.97;;
11346;SDS011;5728;42.722;23.258;2023-05-20T13:46:55;5.95;;;3.72;;
11346;SDS011;5728;42.722;23.258;2023-05-20T13:49:23;4.05;;;3.65;;
11346;SDS011;5728;42.722;23.258;2023-05-20T13:51:50;4.88;;;4.00;;
11346;SDS011;5728;42.722;23.258;2023-05-20T13:54:17;5.85;;;4.20;;
11346;SDS011;5728;42.722;23.258;2023-05-20T13:56:45;5.35;;;4.18;;
11346;SDS011;5728;42.722;23.258;2023-05-20T13:59:12;6.40;;;3.88;;
11346;SDS011;5728;42.722;23.258;2023-05-20T14:01:39;7.03;;;4.65;;
11346;SDS011;5728;42.722;23.258;2023-05-20T14:04:09;5.32;;;4.03;;
11346;SDS011;5728;42.722;23.258;2023-05-20T14:06:38;5.15;;;3.70;;
11346;SDS011;5728;42.722;23.258;2023-05-20T14:09:05;5.07;;;3.83;;
11346;SDS011;5728;42.722;23.258;2023-05-20T14:11:34;4.00;;;3.60;;
11346;SDS011;5728;42.722;23.258;2023-05-20T14:14:01;13.57;;;10.05;;
11346;SDS011;5728;42.722;23.258;2023-05-20T14:16:28;6.60;;;5.93;;
11346;SDS011;5728;42.722;23.258;2023-05-20T14:18:55;5.72;;;4.03;;
11346;SDS011;5728;42.722;23.258;2023-05-20T14:21:22;5.50;;;4.22;;
11346;SDS011;5728;42.722;23.258;2023-05-20T14:23:50;6.72;;;4.88;;
11346;SDS011;5728;42.722;23.258;2023-05-20T14:26:17;18.60;;;15.70;;
11346;SDS011;5728;42.722;23.258;2023-05-20T14:28:44;4.68;;;3.72;;
11346;SDS011;5728;42.722;23.258;2023-05-20T14:31:11;5.18;;;3.80;;
11346;SDS011;5728;42.722;23.258;2023-05-20T14:33:37;5.45;;;3.92;;
11346;SDS011;5728;42.722;23.258;2023-05-20T14:36:05;4.65;;;4.10;;
11346;SDS011;5728;42.722;23.258;2023-05-20T14:38:32;4.45;;;3.90;;
11346;SDS011;5728;42.722;23.258;2023-05-20T14:41:01;5.80;;;3.95;;
11346;SDS011;5728;42.722;23.258;2023-05-20T14:43:28;4.90;;;3.85;;
11346;SDS011;5728;42.722;23.258;2023-05-20T14:45:56;5.07;;;3.92;;